Time;durP1;ratioP1;P1;durP2;ratioP2;P2;SDS_P1;SDS_P2;PMS_P1;PMS_P2;Temp;Humidity;BMP_temperature;BMP_pressure;BME280_temperature;BME280_humidity;BME280_pressure;Samples;Min_cycle;Max_cycle;Signal;HPM_P1;HPM_P2
2022/05/29 00:00:11;;;;;;;;;;;17.40;59.70;;;;;;5075088;28;19905;-60
2022/05/29 00:02:37;;;;;;;;;;;17.40;59.80;;;;;;5057276;28;20438;-60
2022/05/29 00:05:03;;;;;;;;;;;17.40;59.70;;;;;;5054269;28;19912;-60
2022/05/29 00:07:29;;;;;;;;;;;17.30;59.50;;;;;;5053612;28;19909;-60
2022/05/29 00:09:55;;;;;;;;;;;17.40;59.70;;;;;;5055255;28;19905;-60
2022/05/29 00:12:21;;;;;;;;;;;17.40;59.70;;;;;;5055298;28;19905;-60
2022/05/29 00:14:48;;;;;;;;;;;17.40;59.70;;;;;;5054943;28;19905;-60
2022/05/29 00:17:14;;;;;;;;;;;17.40;59.70;;;;;;5053606;28;19908;-60
2022/05/29 00:19:40;;;;;;;;;;;17.40;59.80;;;;;;5054058;28;19999;-60
2022/05/29 00:22:05;;;;;;;;;;;17.40;59.80;;;;;;5055039;28;19944;-60
2022/05/29 00:24:31;;;;;;;;;;;17.40;59.80;;;;;;5053437;28;19958;-60
2022/05/29 00:26:57;;;;;;;;;;;17.50;60.00;;;;;;5054481;28;20001;-60
2022/05/29 00:29:22;;;;;;;;;;;17.50;60.00;;;;;;5054731;28;19908;-60
2022/05/29 00:31:48;;;;;;;;;;;17.50;60.00;;;;;;5037135;28;19956;-60
2022/05/29 00:34:13;;;;;;;;;;;17.50;60.00;;;;;;5055002;28;19947;-60
2022/05/29 00:36:40;;;;;;;;;;;17.50;59.80;;;;;;5052675;28;19908;-60
2022/05/29 00:39:07;;;;;;;;;;;17.60;60.00;;;;;;5054914;28;19991;-60
2022/05/29 00:41:34;;;;;;;;;;;17.50;60.10;;;;;;5054859;28;19958;-60
2022/05/29 00:44:17;;;;;;;;;;;17.60;60.20;;;;;;5049701;28;19931;-60
2022/05/29 00:46:53;;;;;;;;;;;17.60;60.50;;;;;;5052523;28;19908;-60
2022/05/29 00:49:22;;;;;;;;;;;17.50;60.40;;;;;;5053234;28;19905;-60
2022/05/29 00:52:01;;;;;;;;;;;17.50;60.50;;;;;;5052742;28;19967;-60
2022/05/29 00:54:28;;;;;;;;;;;17.50;60.70;;;;;;5054428;28;20000;-60
2022/05/29 00:56:54;;;;;;;;;;;17.50;60.90;;;;;;5054453;28;19956;-60
2022/05/29 00:59:21;;;;;;;;;;;17.50;61.20;;;;;;5054491;28;19908;-60
2022/05/29 01:01:47;;;;;;;;;;;17.50;61.10;;;;;;5064279;28;19962;-60
2022/05/29 01:04:13;;;;;;;;;;;17.50;61.20;;;;;;5074466;28;19936;-60
2022/05/29 01:06:39;;;;;;;;;;;17.50;61.30;;;;;;5073486;28;20331;-60
2022/05/29 01:09:05;;;;;;;;;;;17.50;61.30;;;;;;5073651;28;20410;-60
2022/05/29 01:11:50;;;;;;;;;;;17.50;61.30;;;;;;5074522;28;19951;-60
2022/05/29 01:14:47;;;;;;;;;;;17.50;61.20;;;;;;5074246;28;19904;-60
2022/05/29 01:17:19;;;;;;;;;;;17.50;61.40;;;;;;5050814;28;20007;-60
2022/05/29 01:19:59;;;;;;;;;;;17.50;61.50;;;;;;5074156;28;19904;-60
2022/05/29 01:22:25;;;;;;;;;;;17.40;61.50;;;;;;5073818;28;19909;-60
2022/05/29 01:24:58;;;;;;;;;;;17.40;61.50;;;;;;5073848;28;19931;-60
2022/05/29 01:27:40;;;;;;;;;;;17.40;61.60;;;;;;5072554;28;20433;-60
2022/05/29 01:30:08;;;;;;;;;;;17.40;61.70;;;;;;5072479;28;19905;-60
2022/05/29 01:32:38;;;;;;;;;;;17.40;61.60;;;;;;5073626;28;19908;-60
2022/05/29 01:35:08;;;;;;;;;;;17.40;61.70;;;;;;5072469;28;19915;-60
2022/05/29 01:37:41;;;;;;;;;;;17.40;61.80;;;;;;5073419;28;19915;-60
2022/05/29 01:40:14;;;;;;;;;;;17.40;61.80;;;;;;5068850;28;20268;-60
2022/05/29 01:42:42;;;;;;;;;;;17.40;61.80;;;;;;5072890;28;20380;-60
2022/05/29 01:45:10;;;;;;;;;;;17.40;61.80;;;;;;5073472;28;19954;-60
2022/05/29 01:47:38;;;;;;;;;;;17.40;61.90;;;;;;5073178;28;19904;-60
2022/05/29 01:50:17;;;;;;;;;;;17.40;61.80;;;;;;5073331;28;19943;-60
2022/05/29 01:52:47;;;;;;;;;;;17.40;61.90;;;;;;5073110;28;19904;-60
2022/05/29 01:55:16;;;;;;;;;;;17.40;61.90;;;;;;5073060;28;19953;-60
2022/05/29 01:57:43;;;;;;;;;;;17.40;61.80;;;;;;5072949;28;20006;-60
2022/05/29 02:00:13;;;;;;;;;;;17.30;61.70;;;;;;5072276;28;20041;-60
2022/05/29 02:03:04;;;;;;;;;;;17.40;61.90;;;;;;5072632;28;19916;-60
2022/05/29 02:05:34;;;;;;;;;;;17.30;61.60;;;;;;5059373;28;20489;-60
2022/05/29 02:08:26;;;;;;;;;;;17.30;61.40;;;;;;5074329;28;19908;-60
2022/05/29 02:11:02;;;;;;;;;;;17.30;61.30;;;;;;5062116;28;20336;-60
2022/05/29 02:13:27;;;;;;;;;;;17.30;61.50;;;;;;5072950;28;19916;-60
2022/05/29 02:15:57;;;;;;;;;;;17.30;61.50;;;;;;5072842;28;19954;-60
2022/05/29 02:18:26;;;;;;;;;;;17.30;61.50;;;;;;5067976;28;19999;-60
2022/05/29 02:20:53;;;;;;;;;;;17.30;61.50;;;;;;5072914;28;19904;-60
2022/05/29 02:23:23;;;;;;;;;;;17.30;61.60;;;;;;5073014;28;20299;-60
2022/05/29 02:25:50;;;;;;;;;;;17.30;61.60;;;;;;5067341;28;19908;-60
2022/05/29 02:28:27;;;;;;;;;;;17.20;61.60;;;;;;5070754;28;19911;-60
2022/05/29 02:30:58;;;;;;;;;;;17.20;62.50;;;;;;5073315;28;19904;-60
2022/05/29 02:33:34;;;;;;;;;;;17.20;61.90;;;;;;5073227;28;19911;-60
2022/05/29 02:36:19;;;;;;;;;;;17.20;61.90;;;;;;5072316;28;19916;-60
2022/05/29 02:38:48;;;;;;;;;;;17.20;62.00;;;;;;5073520;28;20419;-60
2022/05/29 02:41:23;;;;;;;;;;;17.10;61.90;;;;;;5076918;28;19919;-60
2022/05/29 02:44:18;;;;;;;;;;;17.10;62.10;;;;;;5066116;28;20060;-60
2022/05/29 02:46:47;;;;;;;;;;;17.00;62.00;;;;;;5063636;28;19904;-59
2022/05/29 02:49:23;;;;;;;;;;;17.00;62.10;;;;;;5077266;28;19919;-60
2022/05/29 02:51:54;;;;;;;;;;;17.00;62.30;;;;;;5076339;28;19957;-60
2022/05/29 02:54:25;;;;;;;;;;;16.90;62.30;;;;;;5076947;28;19905;-60
2022/05/29 02:56:52;;;;;;;;;;;16.90;62.20;;;;;;5076575;28;19913;-60
2022/05/29 02:59:17;;;;;;;;;;;16.80;62.30;;;;;;5076887;28;19908;-60
2022/05/29 03:01:57;;;;;;;;;;;16.80;62.20;;;;;;5076446;28;19916;-60
2022/05/29 03:04:25;;;;;;;;;;;16.80;62.00;;;;;;5076346;28;19916;-60
2022/05/29 03:06:53;;;;;;;;;;;16.80;61.90;;;;;;5075486;28;19908;-60
2022/05/29 03:09:25;;;;;;;;;;;16.80;61.90;;;;;;5076322;28;19904;-60
2022/05/29 03:11:50;;;;;;;;;;;16.80;62.00;;;;;;5076568;28;19904;-60
2022/05/29 03:14:19;;;;;;;;;;;16.80;61.90;;;;;;5077114;28;19911;-60
2022/05/29 03:16:57;;;;;;;;;;;16.80;62.00;;;;;;5077096;28;19951;-60
2022/05/29 03:19:23;;;;;;;;;;;16.80;62.10;;;;;;5076626;28;20391;-60
2022/05/29 03:22:08;;;;;;;;;;;16.80;61.90;;;;;;5075731;28;20042;-60
2022/05/29 03:24:45;;;;;;;;;;;16.80;61.70;;;;;;5076212;28;19908;-60
2022/05/29 03:27:31;;;;;;;;;;;16.90;61.50;;;;;;5076676;28;20248;-60
2022/05/29 03:30:09;;;;;;;;;;;16.90;61.40;;;;;;5058383;28;20049;-60
2022/05/29 03:32:35;;;;;;;;;;;16.90;61.40;;;;;;5076128;28;19923;-60
2022/05/29 03:35:18;;;;;;;;;;;17.00;61.40;;;;;;5075482;28;19957;-60
2022/05/29 03:37:43;;;;;;;;;;;17.00;61.50;;;;;;5075587;28;19912;-60
2022/05/29 03:40:09;;;;;;;;;;;17.00;61.60;;;;;;5075934;28;19927;-60
2022/05/29 03:42:35;;;;;;;;;;;17.10;61.30;;;;;;5071656;28;19975;-60
2022/05/29 03:45:00;;;;;;;;;;;17.10;61.30;;;;;;5067889;28;20383;-60
2022/05/29 03:47:27;;;;;;;;;;;17.10;61.20;;;;;;5064565;28;19904;-60
2022/05/29 03:49:52;;;;;;;;;;;17.20;61.20;;;;;;5075416;28;19908;-60
2022/05/29 03:52:18;;;;;;;;;;;17.30;61.30;;;;;;5075825;28;19904;-60
2022/05/29 03:54:43;;;;;;;;;;;17.30;61.30;;;;;;5075313;28;19950;-60
2022/05/29 03:57:09;;;;;;;;;;;17.40;61.20;;;;;;5072004;28;19951;-60
2022/05/29 03:59:35;;;;;;;;;;;17.40;61.20;;;;;;5072937;28;19905;-60
2022/05/29 04:02:00;;;;;;;;;;;17.50;61.60;;;;;;5075564;28;19922;-60
2022/05/29 04:04:26;;;;;;;;;;;17.50;61.40;;;;;;5075024;28;19916;-60
2022/05/29 04:06:51;;;;;;;;;;;17.60;61.60;;;;;;5075591;28;19950;-60
2022/05/29 04:12:03;;;;;;;;;;;17.70;61.50;;;;;;5074943;28;19914;-60
2022/05/29 04:14:30;;;;;;;;;;;17.90;61.70;;;;;;5075660;28;19905;-60
2022/05/29 04:16:55;;;;;;;;;;;18.00;61.70;;;;;;5075609;28;19912;-60
2022/05/29 04:19:21;;;;;;;;;;;18.20;61.50;;;;;;5075481;28;19987;-60
2022/05/29 04:21:48;;;;;;;;;;;18.40;61.20;;;;;;5075325;28;20058;-60
2022/05/29 04:24:15;;;;;;;;;;;18.60;61.00;;;;;;5075073;28;19911;-60
2022/05/29 04:26:40;;;;;;;;;;;18.70;60.80;;;;;;5074822;28;19947;-60
2022/05/29 04:29:06;;;;;;;;;;;18.80;60.80;;;;;;5073536;28;19990;-60
2022/05/29 04:31:32;;;;;;;;;;;18.90;60.80;;;;;;5074612;28;19991;-60
2022/05/29 04:33:57;;;;;;;;;;;19.00;60.70;;;;;;5074987;28;20370;-60
2022/05/29 04:36:24;;;;;;;;;;;19.00;60.50;;;;;;5071389;28;19917;-60
2022/05/29 04:38:49;;;;;;;;;;;19.00;60.30;;;;;;5074396;28;20232;-60
2022/05/29 04:41:16;;;;;;;;;;;19.00;60.20;;;;;;5079934;28;19912;-60
2022/05/29 04:43:41;;;;;;;;;;;19.00;59.70;;;;;;5074348;28;19912;-60
2022/05/29 04:46:07;;;;;;;;;;;19.00;59.50;;;;;;5073905;28;19966;-60
2022/05/29 04:48:32;;;;;;;;;;;19.00;59.50;;;;;;5074865;28;19904;-60
2022/05/29 04:50:59;;;;;;;;;;;19.00;59.60;;;;;;5074523;28;19905;-60
2022/05/29 04:53:26;;;;;;;;;;;19.20;59.60;;;;;;5055675;28;19905;-60
2022/05/29 04:55:55;;;;;;;;;;;19.30;59.40;;;;;;5063334;28;19912;-60
2022/05/29 04:58:21;;;;;;;;;;;19.40;59.40;;;;;;5074332;28;19911;-60
2022/05/29 05:00:47;;;;;;;;;;;19.50;58.90;;;;;;5072957;28;19912;-59
2022/05/29 05:03:13;;;;;;;;;;;19.50;58.70;;;;;;5073001;28;19981;-60
2022/05/29 05:05:38;;;;;;;;;;;19.50;58.70;;;;;;5073889;28;19975;-60
2022/05/29 05:08:04;;;;;;;;;;;19.50;58.80;;;;;;5070084;28;20319;-60
2022/05/29 05:10:29;;;;;;;;;;;19.60;58.80;;;;;;5073795;28;19908;-60
2022/05/29 05:12:55;;;;;;;;;;;19.70;58.80;;;;;;5073967;28;19957;-60
2022/05/29 05:15:21;;;;;;;;;;;19.80;59.00;;;;;;5073986;28;20264;-60
2022/05/29 05:17:47;;;;;;;;;;;20.20;59.50;;;;;;5073442;28;19919;-60
2022/05/29 05:20:12;;;;;;;;;;;20.70;58.90;;;;;;5074335;28;19994;-60
2022/05/29 05:22:38;;;;;;;;;;;21.10;58.10;;;;;;5073707;28;19999;-59
2022/05/29 05:25:04;;;;;;;;;;;21.50;57.40;;;;;;5072619;28;20328;-60
2022/05/29 05:27:29;;;;;;;;;;;21.70;56.90;;;;;;5065189;28;19912;-60
2022/05/29 05:29:55;;;;;;;;;;;21.90;56.50;;;;;;5073267;28;19908;-59
2022/05/29 05:32:20;;;;;;;;;;;21.90;56.30;;;;;;5071235;28;19916;-60
2022/05/29 05:34:46;;;;;;;;;;;22.00;56.50;;;;;;5072357;28;19999;-59
2022/05/29 05:37:13;;;;;;;;;;;22.00;55.90;;;;;;5073379;28;20411;-60
2022/05/29 05:39:39;;;;;;;;;;;21.90;55.70;;;;;;5071449;28;20276;-60
2022/05/29 05:42:05;;;;;;;;;;;21.90;55.60;;;;;;5066041;28;19908;-60
2022/05/29 05:44:30;;;;;;;;;;;21.90;55.60;;;;;;5066084;28;19936;-60
2022/05/29 05:46:56;;;;;;;;;;;21.90;55.50;;;;;;5073733;28;20292;-60
2022/05/29 05:49:23;;;;;;;;;;;21.90;55.60;;;;;;5074181;28;19905;-61
2022/05/29 05:51:50;;;;;;;;;;;21.80;55.30;;;;;;5073028;28;19942;-60
2022/05/29 05:54:16;;;;;;;;;;;21.80;55.00;;;;;;5074118;28;20363;-60
2022/05/29 05:56:42;;;;;;;;;;;21.70;55.10;;;;;;5073563;28;19959;-60
2022/05/29 05:59:08;;;;;;;;;;;21.70;55.00;;;;;;5068234;28;19983;-60
2022/05/29 06:01:33;;;;;;;;;;;21.70;54.90;;;;;;5072946;28;19942;-60
2022/05/29 06:03:59;;;;;;;;;;;21.60;55.50;;;;;;5073733;28;19948;-60
2022/05/29 06:06:24;;;;;;;;;;;21.60;54.80;;;;;;5073360;28;20560;-60
2022/05/29 06:08:50;;;;;;;;;;;21.60;54.70;;;;;;5072768;28;19915;-59
2022/05/29 06:11:15;;;;;;;;;;;21.50;54.70;;;;;;5073723;28;19951;-60
2022/05/29 06:13:41;;;;;;;;;;;21.50;54.70;;;;;;5072685;28;19905;-60
2022/05/29 06:16:08;;;;;;;;;;;21.50;54.60;;;;;;5073260;28;20359;-60
2022/05/29 06:18:34;;;;;;;;;;;21.50;54.50;;;;;;5073496;28;19904;-60
2022/05/29 06:21:00;;;;;;;;;;;21.60;54.50;;;;;;5073001;28;20058;-60
2022/05/29 06:23:27;;;;;;;;;;;21.60;54.30;;;;;;5072616;28;19919;-59
2022/05/29 06:25:52;;;;;;;;;;;21.60;54.10;;;;;;5072149;28;19915;-60
2022/05/29 06:28:18;;;;;;;;;;;21.70;54.00;;;;;;5072800;28;20497;-60
2022/05/29 06:30:44;;;;;;;;;;;21.80;53.80;;;;;;5070847;28;20590;-59
2022/05/29 06:33:10;;;;;;;;;;;21.80;54.00;;;;;;5071216;28;19985;-59
2022/05/29 06:35:36;;;;;;;;;;;21.80;53.70;;;;;;5071626;28;20279;-59
2022/05/29 06:38:01;;;;;;;;;;;21.90;53.50;;;;;;5058253;28;19904;-59
2022/05/29 06:40:27;;;;;;;;;;;21.90;53.20;;;;;;5071861;28;20378;-59
2022/05/29 06:42:52;;;;;;;;;;;21.90;53.10;;;;;;5053993;28;19915;-59
2022/05/29 06:45:18;;;;;;;;;;;22.00;53.30;;;;;;5072806;28;19904;-59
2022/05/29 06:47:43;;;;;;;;;;;22.00;53.20;;;;;;5072578;28;19987;-60
2022/05/29 06:50:10;;;;;;;;;;;22.00;52.70;;;;;;5067189;28;19909;-59
2022/05/29 06:52:35;;;;;;;;;;;22.00;52.30;;;;;;5071487;28;19904;-60
2022/05/29 06:55:02;;;;;;;;;;;21.90;52.30;;;;;;5070571;28;19961;-59
2022/05/29 06:57:36;;;;;;;;;;;21.90;52.10;;;;;;5070543;28;19913;-59
2022/05/29 07:08:20;;;;;;;;;;;21.60;52.40;;;;;;5069211;28;19962;-60
2022/05/29 07:10:45;;;;;;;;;;;21.60;52.60;;;;;;5072519;28;19905;-59
2022/05/29 07:13:11;;;;;;;;;;;21.60;52.80;;;;;;5070147;28;19908;-59
2022/05/29 07:15:37;;;;;;;;;;;21.60;52.70;;;;;;5069127;28;20291;-59
2022/05/29 07:18:02;;;;;;;;;;;21.60;52.80;;;;;;5070489;28;20338;-60
2022/05/29 07:20:28;;;;;;;;;;;21.70;52.70;;;;;;5069282;28;19908;-60
2022/05/29 07:22:54;;;;;;;;;;;21.70;52.80;;;;;;5070257;28;20380;-59
2022/05/29 07:25:20;;;;;;;;;;;21.70;52.90;;;;;;5071254;28;19962;-60
2022/05/29 07:27:45;;;;;;;;;;;21.80;52.70;;;;;;5073269;28;20032;-60
2022/05/29 07:30:11;;;;;;;;;;;21.80;52.90;;;;;;5072209;28;19912;-60
2022/05/29 07:32:36;;;;;;;;;;;21.80;52.20;;;;;;5070333;28;19972;-59
2022/05/29 07:35:02;;;;;;;;;;;21.80;51.60;;;;;;5074378;28;19923;-60
2022/05/29 07:37:28;;;;;;;;;;;21.80;51.90;;;;;;5075083;28;19927;-54
2022/05/29 07:39:54;;;;;;;;;;;21.80;51.70;;;;;;5073429;28;19965;-55
2022/05/29 07:45:05;;;;;;;;;;;21.80;51.10;;;;;;5071469;28;20394;-54
2022/05/29 07:47:40;;;;;;;;;;;21.70;51.20;;;;;;5074404;28;19995;-54
2022/05/29 07:50:06;;;;;;;;;;;21.70;51.10;;;;;;5073608;28;20320;-54
2022/05/29 07:52:32;;;;;;;;;;;21.60;51.70;;;;;;5074824;28;20406;-54
2022/05/29 07:54:57;;;;;;;;;;;21.60;51.60;;;;;;5076041;28;19955;-54
2022/05/29 07:57:23;;;;;;;;;;;21.50;51.00;;;;;;5075354;28;19909;-54
2022/05/29 07:59:48;;;;;;;;;;;21.50;51.50;;;;;;5074677;28;19908;-54
2022/05/29 08:02:14;;;;;;;;;;;21.40;51.30;;;;;;5075147;28;19939;-54
2022/05/29 08:04:40;;;;;;;;;;;21.30;51.50;;;;;;5070173;28;19908;-54
2022/05/29 08:07:06;;;;;;;;;;;21.20;50.80;;;;;;5058991;28;19909;-54
2022/05/29 08:09:31;;;;;;;;;;;21.20;51.40;;;;;;5074869;28;19911;-54
2022/05/29 08:11:57;;;;;;;;;;;21.10;51.20;;;;;;5075270;28;19939;-55
2022/05/29 08:14:22;;;;;;;;;;;21.00;51.20;;;;;;5075208;28;19911;-54
2022/05/29 08:16:48;;;;;;;;;;;21.00;51.00;;;;;;5075113;28;19909;-54
2022/05/29 08:19:13;;;;;;;;;;;20.90;51.00;;;;;;5074643;28;20417;-55
2022/05/29 08:21:41;;;;;;;;;;;20.80;51.20;;;;;;5073217;28;19908;-55
2022/05/29 08:32:19;;;;;;;;;;;20.50;51.40;;;;;;5072547;28;20318;-54
2022/05/29 08:34:45;;;;;;;;;;;20.40;51.70;;;;;;5074480;28;19908;-55
2022/05/29 08:37:11;;;;;;;;;;;20.40;52.10;;;;;;5071150;28;19939;-55
2022/05/29 08:39:37;;;;;;;;;;;20.40;52.20;;;;;;5072296;28;19999;-55
2022/05/29 08:42:02;;;;;;;;;;;20.40;51.90;;;;;;5072947;28;19985;-53
2022/05/29 08:44:41;;;;;;;;;;;20.40;52.00;;;;;;5073037;28;19909;-55
2022/05/29 08:47:07;;;;;;;;;;;20.30;52.00;;;;;;5073326;28;20367;-54
2022/05/29 08:49:43;;;;;;;;;;;20.30;52.20;;;;;;5073217;28;19912;-64
2022/05/29 08:52:08;;;;;;;;;;;20.20;52.20;;;;;;5074164;28;19904;-65
2022/05/29 08:54:40;;;;;;;;;;;20.20;52.60;;;;;;5072256;28;20260;-65
2022/05/29 08:57:25;;;;;;;;;;;20.10;52.90;;;;;;5069716;28;19924;-65
2022/05/29 08:59:52;;;;;;;;;;;20.10;53.00;;;;;;5068873;28;19905;-65
2022/05/29 09:02:21;;;;;;;;;;;20.10;53.30;;;;;;5071295;28;20007;-65
2022/05/29 09:04:50;;;;;;;;;;;20.10;53.40;;;;;;5068554;28;19931;-65
2022/05/29 09:07:18;;;;;;;;;;;20.10;53.30;;;;;;5069518;28;19912;-65
2022/05/29 09:09:55;;;;;;;;;;;20.10;53.20;;;;;;5069976;28;19936;-65
2022/05/29 09:12:31;;;;;;;;;;;20.10;53.30;;;;;;5071069;28;20046;-65
2022/05/29 09:14:56;;;;;;;;;;;20.00;53.40;;;;;;5068918;28;19909;-64
2022/05/29 09:17:31;;;;;;;;;;;20.00;53.20;;;;;;5071204;28;19912;-65
2022/05/29 09:20:29;;;;;;;;;;;20.00;53.40;;;;;;5068097;28;19912;-64
2022/05/29 09:22:59;;;;;;;;;;;19.90;53.70;;;;;;5018338;28;19915;-65
2022/05/29 09:25:27;;;;;;;;;;;19.90;54.00;;;;;;5066775;28;19961;-65
2022/05/29 09:27:53;;;;;;;;;;;19.80;54.00;;;;;;5066785;28;19909;-65
2022/05/29 09:30:18;;;;;;;;;;;19.80;54.20;;;;;;5066305;28;19915;-65
2022/05/29 09:32:49;;;;;;;;;;;19.80;54.20;;;;;;5068586;28;19912;-65
2022/05/29 09:35:34;;;;;;;;;;;19.70;54.50;;;;;;5071216;28;20292;-65
2022/05/29 09:38:19;;;;;;;;;;;19.60;54.50;;;;;;5064930;28;19916;-64
2022/05/29 09:40:48;;;;;;;;;;;19.60;54.30;;;;;;5066941;28;19950;-64
2022/05/29 09:43:15;;;;;;;;;;;19.60;54.60;;;;;;5071301;28;20010;-64
2022/05/29 09:45:40;;;;;;;;;;;19.60;54.60;;;;;;5072328;28;19958;-64
2022/05/29 09:51:07;;;;;;;;;;;19.60;55.70;;;;;;5073191;28;19958;-64
2022/05/29 09:53:34;;;;;;;;;;;19.60;55.50;;;;;;5070730;28;19908;-64
2022/05/29 09:56:01;;;;;;;;;;;19.50;55.70;;;;;;5068944;28;19922;-64
2022/05/29 09:58:36;;;;;;;;;;;19.50;56.00;;;;;;5072721;28;19909;-64
2022/05/29 10:01:03;;;;;;;;;;;19.50;56.40;;;;;;5069948;28;20599;-64
2022/05/29 10:03:40;;;;;;;;;;;19.50;57.10;;;;;;5070316;28;20314;-64
2022/05/29 10:06:09;;;;;;;;;;;19.40;58.10;;;;;;5071522;28;20351;-64
2022/05/29 10:08:34;;;;;;;;;;;19.30;57.90;;;;;;5070888;28;19923;-64
2022/05/29 10:11:12;;;;;;;;;;;19.30;57.60;;;;;;5072149;28;19909;-64
2022/05/29 10:13:39;;;;;;;;;;;19.20;57.50;;;;;;5072801;28;19931;-64
2022/05/29 10:16:05;;;;;;;;;;;19.20;57.00;;;;;;5071847;28;20011;-64
2022/05/29 10:18:32;;;;;;;;;;;19.20;58.30;;;;;;5071585;28;19955;-64
2022/05/29 10:21:05;;;;;;;;;;;19.10;58.80;;;;;;5067735;28;20005;-64
2022/05/29 10:23:32;;;;;;;;;;;19.10;59.70;;;;;;5071307;28;19915;-64
2022/05/29 10:25:59;;;;;;;;;;;19.10;58.70;;;;;;5073114;28;20264;-64
2022/05/29 10:28:45;;;;;;;;;;;19.00;58.80;;;;;;5071324;28;19909;-64
2022/05/29 10:31:21;;;;;;;;;;;19.00;59.90;;;;;;5066488;28;20374;-64
2022/05/29 10:34:08;;;;;;;;;;;18.90;60.20;;;;;;5070255;28;20300;-64
2022/05/29 10:36:35;;;;;;;;;;;18.80;61.00;;;;;;5066627;28;20305;-64
2022/05/29 10:39:20;;;;;;;;;;;18.70;61.60;;;;;;5071278;28;19914;-64
2022/05/29 10:41:46;;;;;;;;;;;18.60;61.50;;;;;;5071388;28;20354;-64
2022/05/29 10:44:14;;;;;;;;;;;18.50;62.00;;;;;;5071628;28;19954;-64
2022/05/29 10:46:39;;;;;;;;;;;18.50;62.70;;;;;;5069933;28;19908;-64
2022/05/29 10:49:25;;;;;;;;;;;18.40;62.90;;;;;;5066550;28;19945;-64
2022/05/29 10:51:50;;;;;;;;;;;18.40;63.40;;;;;;5069735;28;19912;-64
2022/05/29 10:54:42;;;;;;;;;;;18.40;63.40;;;;;;5068144;28;19915;-64
2022/05/29 10:57:08;;;;;;;;;;;18.30;63.80;;;;;;5068764;28;19913;-64
2022/05/29 10:59:45;;;;;;;;;;;18.20;63.50;;;;;;5068327;28;20245;-64
2022/05/29 11:05:04;;;;;;;;;;;18.20;64.40;;;;;;5067075;28;19927;-64
2022/05/29 11:07:37;;;;;;;;;;;18.20;64.20;;;;;;5070708;28;19912;-65
2022/05/29 11:10:05;;;;;;;;;;;18.30;64.30;;;;;;5066228;28;19908;-64
2022/05/29 11:12:50;;;;;;;;;;;18.20;64.50;;;;;;5076171;28;19909;-65
2022/05/29 11:15:28;;;;;;;;;;;18.30;65.70;;;;;;5070942;28;19904;-65
2022/05/29 11:18:09;;;;;;;;;;;18.20;65.00;;;;;;5073993;28;20421;-64
2022/05/29 11:20:38;;;;;;;;;;;18.20;64.90;;;;;;5067492;28;19937;-64
2022/05/29 11:23:06;;;;;;;;;;;18.20;65.00;;;;;;5075547;28;19911;-59
2022/05/29 11:25:38;;;;;;;;;;;18.20;64.00;;;;;;5075524;28;19913;-59
2022/05/29 11:28:08;;;;;;;;;;;18.20;65.30;;;;;;5075926;28;20034;-59
2022/05/29 11:30:33;;;;;;;;;;;18.20;64.60;;;;;;5075901;28;20278;-59
2022/05/29 11:33:18;;;;;;;;;;;18.20;64.30;;;;;;5076226;28;19983;-60
2022/05/29 11:35:57;;;;;;;;;;;18.10;64.60;;;;;;5076124;28;19958;-59
2022/05/29 11:38:35;;;;;;;;;;;18.10;64.80;;;;;;5075029;28;19998;-59
2022/05/29 11:41:05;;;;;;;;;;;18.10;65.00;;;;;;5070688;28;19923;-58
2022/05/29 11:43:31;;;;;;;;;;;18.10;64.10;;;;;;5072192;28;19912;-58
2022/05/29 11:52:02;;;;;;;;;;;18.10;64.70;;;;;;5067688;28;19919;-58
2022/05/29 11:54:27;;;;;;;;;;;18.10;65.30;;;;;;5073906;28;20041;-59
2022/05/29 11:56:57;;;;;;;;;;;18.10;64.90;;;;;;5074585;28;20431;-59
2022/05/29 11:59:25;;;;;;;;;;;18.10;64.80;;;;;;5072402;28;19911;-59
2022/05/29 12:02:01;;;;;;;;;;;18.10;65.00;;;;;;5070994;28;19916;-59
2022/05/29 12:04:44;;;;;;;;;;;18.10;64.90;;;;;;5070474;28;20303;-59
2022/05/29 12:07:13;;;;;;;;;;;18.10;64.90;;;;;;5066423;28;20316;-58
2022/05/29 12:09:42;;;;;;;;;;;18.20;65.30;;;;;;5070431;28;19908;-59
2022/05/29 12:12:12;;;;;;;;;;;18.20;64.20;;;;;;5075115;28;19904;-58
2022/05/29 12:14:41;;;;;;;;;;;18.20;64.60;;;;;;5074246;28;19919;-58
2022/05/29 12:17:11;;;;;;;;;;;18.20;64.60;;;;;;5074079;28;19920;-59
2022/05/29 12:19:48;;;;;;;;;;;18.20;65.20;;;;;;5073594;28;19910;-59
2022/05/29 12:22:15;;;;;;;;;;;18.20;65.40;;;;;;5072671;28;20347;-59
2022/05/29 12:24:42;;;;;;;;;;;18.30;64.90;;;;;;5074693;28;19905;-59
2022/05/29 12:27:11;;;;;;;;;;;18.30;65.50;;;;;;5075095;28;19905;-59
2022/05/29 12:29:44;;;;;;;;;;;18.20;65.80;;;;;;5075240;28;20419;-59
2022/05/29 12:32:14;;;;;;;;;;;18.20;64.90;;;;;;5064860;28;19915;-59
2022/05/29 12:34:44;;;;;;;;;;;18.20;65.50;;;;;;5079008;28;19915;-59
2022/05/29 12:37:29;;;;;;;;;;;18.20;65.20;;;;;;5072239;28;19921;-59
2022/05/29 12:39:54;;;;;;;;;;;18.20;65.50;;;;;;5060132;28;19912;-59
2022/05/29 12:42:29;;;;;;;;;;;18.20;65.20;;;;;;5072348;28;20334;-57
2022/05/29 12:44:54;;;;;;;;;;;18.20;65.00;;;;;;5071881;28;19904;-59
2022/05/29 12:47:39;;;;;;;;;;;18.30;65.60;;;;;;5072711;28;19904;-59
2022/05/29 12:50:16;;;;;;;;;;;18.20;65.70;;;;;;5067360;28;19908;-59
2022/05/29 12:52:41;;;;;;;;;;;18.20;65.90;;;;;;5070603;28;20312;-63
2022/05/29 12:55:16;;;;;;;;;;;18.20;65.90;;;;;;5071461;28;19963;-64
2022/05/29 12:58:02;;;;;;;;;;;18.30;66.30;;;;;;5066406;28;20368;-64
2022/05/29 13:00:46;;;;;;;;;;;18.30;66.70;;;;;;5026478;28;19911;-64
2022/05/29 13:03:14;;;;;;;;;;;18.30;66.10;;;;;;5074285;28;20376;-64
2022/05/29 13:05:42;;;;;;;;;;;18.30;67.10;;;;;;5073636;28;20276;-64
2022/05/29 13:08:27;;;;;;;;;;;18.30;66.00;;;;;;5073450;28;19978;-64
2022/05/29 13:10:53;;;;;;;;;;;18.30;67.10;;;;;;5073835;28;19904;-64
2022/05/29 13:13:22;;;;;;;;;;;18.30;66.70;;;;;;5074306;28;19910;-64
2022/05/29 13:15:48;;;;;;;;;;;18.30;66.40;;;;;;5066533;28;19904;-58
2022/05/29 13:18:22;;;;;;;;;;;18.30;66.40;;;;;;5074258;28;19912;-59
2022/05/29 13:21:04;;;;;;;;;;;18.30;65.70;;;;;;5069744;28;20295;-58
2022/05/29 13:23:34;;;;;;;;;;;18.30;65.90;;;;;;5068919;28;19911;-59
2022/05/29 13:26:00;;;;;;;;;;;18.40;65.10;;;;;;5074223;28;20329;-59
2022/05/29 13:28:31;;;;;;;;;;;18.40;65.10;;;;;;5073623;28;19908;-58
2022/05/29 13:31:04;;;;;;;;;;;18.40;64.10;;;;;;5073576;28;20170;-59
2022/05/29 13:33:30;;;;;;;;;;;18.40;64.70;;;;;;5073516;28;20352;-59
2022/05/29 13:35:56;;;;;;;;;;;18.50;64.60;;;;;;5072896;28;19908;-59
2022/05/29 13:38:50;;;;;;;;;;;18.50;65.10;;;;;;5072851;28;19908;-59
2022/05/29 13:41:26;;;;;;;;;;;18.50;65.50;;;;;;5056791;28;20421;-59
2022/05/29 13:43:51;;;;;;;;;;;18.50;65.50;;;;;;5065288;28;19909;-59
2022/05/29 13:46:19;;;;;;;;;;;18.50;66.00;;;;;;5073376;28;20436;-58
2022/05/29 13:49:02;;;;;;;;;;;18.50;65.60;;;;;;5073094;28;19904;-58
2022/05/29 13:51:29;;;;;;;;;;;18.50;65.10;;;;;;5072015;28;19905;-59
2022/05/29 13:53:57;;;;;;;;;;;18.50;65.00;;;;;;5072848;28;19943;-59
2022/05/29 13:56:43;;;;;;;;;;;18.60;63.90;;;;;;5073041;28;20295;-58
2022/05/29 14:04:48;;;;;;;;;;;18.60;64.60;;;;;;5071199;28;19911;-59
2022/05/29 14:07:15;;;;;;;;;;;18.60;65.50;;;;;;5072260;28;19951;-58
2022/05/29 14:09:41;;;;;;;;;;;18.60;65.20;;;;;;5071995;28;20295;-59
2022/05/29 14:12:13;;;;;;;;;;;18.60;65.30;;;;;;5072683;28;19912;-59
2022/05/29 14:14:47;;;;;;;;;;;18.60;66.30;;;;;;5072919;28;19915;-59
2022/05/29 14:17:13;;;;;;;;;;;18.60;65.70;;;;;;5073227;28;19958;-58
2022/05/29 14:19:41;;;;;;;;;;;18.70;65.60;;;;;;5072714;28;20310;-59
2022/05/29 14:22:13;;;;;;;;;;;18.70;66.90;;;;;;5071743;28;19908;-58
2022/05/29 14:24:45;;;;;;;;;;;18.60;67.20;;;;;;5071426;28;19951;-58
2022/05/29 14:27:19;;;;;;;;;;;18.60;67.90;;;;;;5070348;28;19943;-58
2022/05/29 14:30:04;;;;;;;;;;;18.60;67.70;;;;;;5071447;28;19911;-58
2022/05/29 14:32:41;;;;;;;;;;;18.60;67.50;;;;;;5071361;28;19908;-58
2022/05/29 14:35:10;;;;;;;;;;;18.60;69.10;;;;;;5070056;28;19912;-59
2022/05/29 14:37:35;;;;;;;;;;;18.60;70.10;;;;;;5073119;28;20265;-59
2022/05/29 14:40:01;;;;;;;;;;;18.60;70.40;;;;;;5062584;28;19962;-58
2022/05/29 14:42:38;;;;;;;;;;;18.50;70.00;;;;;;5072102;28;19920;-59
2022/05/29 14:45:07;;;;;;;;;;;18.50;70.30;;;;;;5072559;28;20030;-59
2022/05/29 14:47:44;;;;;;;;;;;18.50;69.50;;;;;;5072095;28;19977;-58
2022/05/29 14:50:29;;;;;;;;;;;18.50;69.90;;;;;;5072450;28;19905;-57
2022/05/29 14:53:07;;;;;;;;;;;18.50;70.30;;;;;;5070736;28;19970;-59
2022/05/29 14:56:07;;;;;;;;;;;18.50;70.00;;;;;;5069471;28;19955;-58
2022/05/29 14:58:35;;;;;;;;;;;18.50;69.90;;;;;;5017111;28;19918;-57
2022/05/29 15:01:06;;;;;;;;;;;18.50;69.50;;;;;;5072644;28;19915;-58
2022/05/29 15:03:36;;;;;;;;;;;18.50;68.70;;;;;;5074739;28;19947;-58
2022/05/29 15:06:02;;;;;;;;;;;18.50;69.00;;;;;;5072253;28;19991;-60
2022/05/29 15:11:27;;;;;;;;;;;18.60;68.50;;;;;;5072374;28;19962;-60
2022/05/29 15:14:01;;;;;;;;;;;18.60;68.60;;;;;;5072708;28;19905;-59